KELD/ELD METAR and TAF weather

Enter ICAO airport designator
Station Type Date Time Source
KELD METAR 2022/06/28 23:53 UTC NOAA

KELD 282353Z AUTO 01006KT 10SM CLR 29/15 A3009 RMK AO2 SLP187 T02890150 10311 20289 56010


Station Type Date Time Source
KELD Decoded METAR 2022/06/28 23:53 UTC NOAA

SOUTH ARKANSAS REGIONAL, AR, United States (KELD) 33-13N 092-49W 81M
Jun 28, 2022 - 07:53 PM EDT / 2022.06.28 2353 UTC
Wind: from the N (010 degrees) at 7 MPH (6 KT):0
Visibility: 10 mile(s):0
Sky conditions: clear
Temperature: 84.0 F (28.9 C)
Dew Point: 59.0 F (15.0 C)
Relative Humidity: 42%
Pressure (altimeter): 30.09 in. Hg (1018 hPa)
Pressure tendency: 0.03 inches (1.0 hPa) lower than three hours ago
ob: KELD 282353Z AUTO 01006KT 10SM CLR 29/15 A3009 RMK AO2 SLP187 T02890150 10311 20289 56010
cycle: 0

Station Type Date Time Source
KELD TAF 2022/06/28 18:22 UTC NOAA

TAF KELD 281720Z 2818/2918 03007KT P6SM SCT250
FM290000 03003KT P6SM SCT250
FM291400 04005KT P6SM SCT045 SCT120 SCT250

Example: see airport list